Time;durP1;ratioP1;P1;durP2;ratioP2;P2;SDS_P1;SDS_P2;PMS_P1;PMS_P2;Temp;Humidity;BMP_temperature;BMP_pressure;BME280_temperature;BME280_humidity;BME280_pressure;Samples;Min_cycle;Max_cycle;Signal;HPM_P1;HPM_P2
2022/09/28 00:01:57;;;;;;;9.55;5.80;;;8.30;99.90;;;;;;5154248;27;20043;-72
2022/09/28 00:04:23;;;;;;;9.98;6.18;;;7.90;99.90;;;;;;5154614;27;20038;-72
2022/09/28 00:06:49;;;;;;;8.55;5.80;;;7.90;99.90;;;;;;5154509;27;20026;-72
2022/09/28 00:09:15;;;;;;;9.88;6.13;;;7.90;99.90;;;;;;5155171;27;20097;-72
2022/09/28 00:11:42;;;;;;;9.00;6.20;;;7.90;99.90;;;;;;5154383;27;20133;-72
2022/09/28 00:14:09;;;;;;;7.05;5.82;;;7.90;99.90;;;;;;5154757;27;20048;-72
2022/09/28 00:16:42;;;;;;;10.07;6.72;;;7.90;99.90;;;;;;5154609;27;20031;-72
2022/09/28 00:19:09;;;;;;;12.80;6.82;;;7.90;99.90;;;;;;5136267;27;20046;-72
2022/09/28 00:21:37;;;;;;;9.93;7.18;;;8.00;99.90;;;;;;5152103;27;20043;-72
2022/09/28 00:24:18;;;;;;;13.15;7.88;;;9.00;99.90;;;;;;5135106;27;20038;-72
2022/09/28 00:26:54;;;;;;;13.20;7.20;;;8.00;99.90;;;;;;5154290;27;20041;-72
2022/09/28 00:29:31;;;;;;;12.23;6.90;;;8.10;99.90;;;;;;5153977;27;20117;-72
2022/09/28 00:32:06;;;;;;;11.10;7.50;;;8.10;99.90;;;;;;5132417;27;20118;-72
2022/09/28 00:34:35;;;;;;;11.52;7.93;;;8.10;99.90;;;;;;5126647;27;20059;-73
2022/09/28 00:37:03;;;;;;;16.60;7.78;;;8.10;99.90;;;;;;5153305;27;20516;-73
2022/09/28 00:39:32;;;;;;;9.50;7.13;;;9.10;99.90;;;;;;5153449;27;20090;-73
2022/09/28 00:41:58;;;;;;;10.77;7.95;;;8.20;99.90;;;;;;5135593;27;20403;-72
2022/09/28 00:44:36;;;;;;;11.75;8.40;;;8.20;99.90;;;;;;5152415;27;20042;-73
2022/09/28 00:47:36;;;;;;;10.43;7.68;;;8.10;99.90;;;;;;5152869;27;20043;-73
2022/09/28 00:50:21;;;;;;;13.63;8.55;;;8.10;99.90;;;;;;5074920;27;20103;-72
2022/09/28 00:52:52;;;;;;;12.48;8.00;;;8.10;99.90;;;;;;5154035;27;20057;-72
2022/09/28 00:55:24;;;;;;;11.68;8.15;;;8.10;99.90;;;;;;5135647;27;20042;-72
2022/09/28 00:57:55;;;;;;;14.75;9.15;;;8.10;99.90;;;;;;5153852;27;20087;-72
2022/09/28 01:00:21;;;;;;;12.48;8.43;;;8.40;99.90;;;;;;5135090;27;20039;-72
2022/09/28 01:02:47;;;;;;;12.48;8.45;;;8.10;99.90;;;;;;5135412;27;20384;-73
2022/09/28 01:05:15;;;;;;;10.20;7.57;;;8.10;99.90;;;;;;5154226;27;20030;-72
2022/09/28 01:07:43;;;;;;;10.43;7.82;;;8.10;99.90;;;;;;5118234;27;20054;-73
2022/09/28 01:10:09;;;;;;;13.00;7.72;;;8.10;99.90;;;;;;5152259;27;20046;-72
2022/09/28 01:12:35;;;;;;;12.50;8.18;;;8.00;99.90;;;;;;5135487;27;20050;-72
2022/09/28 01:15:02;;;;;;;15.90;8.02;;;8.00;99.90;;;;;;5154311;27;20395;-72
2022/09/28 01:17:41;;;;;;;12.20;7.97;;;8.00;99.90;;;;;;5153791;27;20047;-72
2022/09/28 01:20:30;;;;;;;12.73;8.32;;;7.90;99.90;;;;;;5153962;27;20129;-72
2022/09/28 01:23:36;;;;;;;13.93;8.40;;;7.90;99.90;;;;;;5149179;27;20046;-72
2022/09/28 01:26:22;;;;;;;12.82;8.65;;;7.80;99.90;;;;;;5136582;27;20391;-72
2022/09/28 01:28:53;;;;;;;13.48;9.57;;;7.80;99.90;;;;;;5135176;27;20043;-73
2022/09/28 01:31:23;;;;;;;12.27;9.25;;;7.70;99.90;;;;;;5134642;27;20051;-73
2022/09/28 01:34:01;;;;;;;12.10;9.30;;;8.40;99.90;;;;;;5135076;27;20035;-73
2022/09/28 01:36:38;;;;;;;13.98;9.18;;;8.00;99.90;;;;;;5153497;27;20407;-72
2022/09/28 01:39:15;;;;;;;13.23;9.55;;;7.70;99.90;;;;;;5152321;27;20043;-72
2022/09/28 01:41:44;;;;;;;14.75;9.73;;;7.70;99.90;;;;;;5152416;27;20538;-72
2022/09/28 01:44:15;;;;;;;14.73;9.70;;;7.60;99.90;;;;;;5157156;27;20035;-72
2022/09/28 01:46:44;;;;;;;16.95;10.82;;;7.60;99.90;;;;;;5139176;27;20391;-73
2022/09/28 01:49:21;;;;;;;15.70;9.90;;;7.60;99.90;;;;;;5157729;27;20047;-72
2022/09/28 01:51:51;;;;;;;14.25;10.00;;;7.60;99.90;;;;;;5157099;27;20498;-72
2022/09/28 01:54:28;;;;;;;14.93;11.00;;;8.20;99.90;;;;;;5139127;27;20047;-72
2022/09/28 01:56:59;;;;;;;17.52;10.88;;;7.50;99.90;;;;;;5147546;27;20038;-72
2022/09/28 01:59:31;;;;;;;16.33;11.10;;;8.20;99.90;;;;;;5157456;27;20050;-72
2022/09/28 02:02:10;;;;;;;16.52;11.13;;;7.50;99.90;;;;;;5156806;27;20150;-72
2022/09/28 02:04:44;;;;;;;17.02;11.93;;;7.50;99.90;;;;;;5156193;27;20050;-72
2022/09/28 02:07:22;;;;;;;18.90;12.90;;;7.50;99.90;;;;;;5136524;27;20091;-72
2022/09/28 02:09:54;;;;;;;18.02;11.85;;;7.50;99.90;;;;;;5156981;27;20042;-72
2022/09/28 02:12:29;;;;;;;23.83;13.70;;;7.50;99.90;;;;;;5138200;27;20035;-73
2022/09/28 02:15:02;;;;;;;23.40;13.25;;;7.50;99.90;;;;;;5157415;27;20066;-73
2022/09/28 02:17:28;;;;;;;19.92;12.95;;;7.50;99.90;;;;;;5138473;27;20175;-72
2022/09/28 02:19:54;;;;;;;21.27;13.25;;;7.50;99.90;;;;;;5157426;27;20121;-72
2022/09/28 02:22:39;;;;;;;19.83;13.07;;;8.10;99.90;;;;;;5156756;27;20042;-72
2022/09/28 02:25:10;;;;;;;19.27;12.95;;;7.50;99.90;;;;;;5157046;27;20091;-72
2022/09/28 02:27:43;;;;;;;18.63;12.20;;;7.60;99.90;;;;;;5156509;27;20039;-72
2022/09/28 02:30:09;;;;;;;17.58;12.10;;;7.60;99.90;;;;;;5156878;27;20046;-72
2022/09/28 02:32:39;;;;;;;19.20;12.93;;;7.70;99.90;;;;;;5148509;27;20053;-72
2022/09/28 02:35:09;;;;;;;17.90;11.90;;;7.70;99.90;;;;;;5136013;27;20058;-72
2022/09/28 02:37:35;;;;;;;16.90;12.13;;;7.70;99.90;;;;;;5152843;27;20103;-72
2022/09/28 02:40:01;;;;;;;16.88;12.27;;;7.70;99.90;;;;;;5134704;27;20445;-72
2022/09/28 02:42:33;;;;;;;18.80;13.15;;;7.70;99.90;;;;;;5152247;27;20118;-72
2022/09/28 02:45:07;;;;;;;20.73;13.40;;;7.60;99.90;;;;;;5137900;27;20043;-72
2022/09/28 02:47:45;;;;;;;22.98;13.73;;;7.60;99.90;;;;;;5156062;27;20049;-72
2022/09/28 02:50:28;;;;;;;19.63;13.13;;;7.70;99.90;;;;;;5156716;27;20107;-71
2022/09/28 02:53:30;;;;;;;19.38;13.10;;;7.60;99.90;;;;;;5156663;27;20372;-72
2022/09/28 02:56:04;;;;;;;24.13;13.82;;;7.70;99.90;;;;;;5155479;27;20053;-72
2022/09/28 02:59:00;;;;;;;20.80;13.98;;;7.60;99.90;;;;;;5156505;27;20050;-72
2022/09/28 03:01:34;;;;;;;20.25;14.05;;;7.60;99.90;;;;;;5156019;27;20479;-72
2022/09/28 03:04:10;;;;;;;20.35;13.82;;;8.30;99.90;;;;;;5156188;27;20114;-72
2022/09/28 03:06:52;;;;;;;20.13;13.60;;;7.60;99.90;;;;;;5155883;27;20078;-72
2022/09/28 03:09:27;;;;;;;20.52;14.30;;;7.50;99.90;;;;;;5137865;27;20095;-72
2022/09/28 03:11:57;;;;;;;46.90;14.87;;;7.80;99.90;;;;;;5154807;27;20487;-72
2022/09/28 03:14:23;;;;;;;33.20;14.15;;;8.50;99.90;;;;;;5156374;27;20050;-72
2022/09/28 03:16:49;;;;;;;83.00;14.93;;;7.50;99.90;;;;;;5119922;27;20079;-72
2022/09/28 03:19:18;;;;;;;60.13;15.60;;;7.50;99.90;;;;;;5156136;27;20081;-72
2022/09/28 03:21:44;;;;;;;43.38;14.40;;;7.40;99.90;;;;;;5148114;27;20047;-72
2022/09/28 03:24:09;;;;;;;30.80;13.65;;;7.40;99.90;;;;;;5116881;27;20535;-72
2022/09/28 03:26:37;;;;;;;30.75;15.43;;;7.40;99.90;;;;;;5135023;27;20475;-72
2022/09/28 03:29:03;;;;;;;91.28;16.45;;;7.40;99.90;;;;;;5151144;27;20042;-72
2022/09/28 03:31:29;;;;;;;112.07;17.63;;;8.00;99.90;;;;;;5154783;27;20149;-72
2022/09/28 03:33:54;;;;;;;88.68;17.65;;;7.40;99.90;;;;;;5155169;27;20107;-72
2022/09/28 03:36:20;;;;;;;128.95;17.80;;;7.40;99.90;;;;;;5151970;27;20031;-72
2022/09/28 03:38:46;;;;;;;119.70;17.08;;;7.40;99.90;;;;;;5136692;27;20111;-72
2022/09/28 03:41:11;;;;;;;159.85;17.17;;;7.40;99.90;;;;;;5155153;27;20053;-72
2022/09/28 03:43:37;;;;;;;149.55;21.08;;;7.40;99.90;;;;;;5155356;27;20074;-72
2022/09/28 03:46:03;;;;;;;189.82;18.80;;;7.40;99.90;;;;;;5154922;27;20031;-72
2022/09/28 03:48:31;;;;;;;163.07;18.20;;;7.30;99.90;;;;;;5135343;27;20077;-72
2022/09/28 03:50:59;;;;;;;262.92;17.17;;;7.30;99.90;;;;;;5151651;27;20662;-72
2022/09/28 03:53:25;;;;;;;238.80;16.58;;;7.30;99.90;;;;;;5147822;27;20087;-72
2022/09/28 03:55:54;;;;;;;331.02;21.48;;;7.30;99.90;;;;;;5153640;27;20035;-72
2022/09/28 03:58:21;;;;;;;261.92;16.52;;;7.20;99.90;;;;;;5136938;27;20126;-72
2022/09/28 04:00:50;;;;;;;423.67;23.92;;;7.30;99.90;;;;;;5154245;27;20122;-73
2022/09/28 04:03:16;;;;;;;231.85;17.85;;;7.20;99.90;;;;;;5119555;27;20046;-72
2022/09/28 04:05:59;;;;;;;236.52;16.08;;;7.10;99.90;;;;;;5154249;27;20043;-72
2022/09/28 04:08:25;;;;;;;204.75;15.48;;;7.10;99.90;;;;;;5154608;27;20046;-72
2022/09/28 04:10:54;;;;;;;187.77;14.82;;;7.00;99.90;;;;;;5154340;27;20117;-72
2022/09/28 04:13:20;;;;;;;210.00;20.02;;;7.00;99.90;;;;;;5136640;27;20402;-72
2022/09/28 04:15:52;;;;;;;246.90;16.40;;;7.00;99.90;;;;;;5135352;27;20045;-72
2022/09/28 04:18:18;;;;;;;279.38;18.88;;;7.00;99.90;;;;;;5154681;27;20073;-72
2022/09/28 04:20:46;;;;;;;229.00;17.30;;;7.00;99.90;;;;;;5153035;27;20421;-72
2022/09/28 04:23:15;;;;;;;221.50;16.63;;;7.00;99.90;;;;;;5154798;27;20043;-72
2022/09/28 04:25:46;;;;;;;282.75;18.80;;;7.00;99.90;;;;;;5136066;27;20432;-72
2022/09/28 04:30:56;;;;;;;76.40;13.32;;;7.10;99.90;;;;;;5152844;27;20047;-72
2022/09/28 04:33:21;;;;;;;81.18;14.27;;;7.00;99.90;;;;;;5148240;27;20046;-72
2022/09/28 04:35:47;;;;;;;62.70;15.05;;;7.30;99.90;;;;;;5153875;27;20513;-72
2022/09/28 04:38:15;;;;;;;33.22;13.88;;;7.00;99.90;;;;;;5154150;27;20054;-72
2022/09/28 04:40:40;;;;;;;31.20;12.55;;;7.40;99.90;;;;;;5154037;27;20034;-72
2022/09/28 04:43:07;;;;;;;25.13;12.57;;;7.00;99.90;;;;;;5154314;27;20134;-72
2022/09/28 04:45:32;;;;;;;18.63;11.70;;;7.00;99.90;;;;;;5135356;27;20070;-72
2022/09/28 04:47:58;;;;;;;32.35;12.68;;;7.00;99.90;;;;;;5154497;27;20505;-72
2022/09/28 04:50:23;;;;;;;18.77;11.20;;;7.00;99.90;;;;;;5135618;27;20038;-72
2022/09/28 04:52:49;;;;;;;24.02;10.80;;;7.00;99.90;;;;;;5154311;27;20043;-72
2022/09/28 04:55:15;;;;;;;18.33;11.38;;;7.00;99.90;;;;;;5154207;27;20467;-72
2022/09/28 04:57:41;;;;;;;16.33;11.48;;;7.00;99.90;;;;;;5153953;27;20034;-72
2022/09/28 05:00:08;;;;;;;23.35;10.65;;;6.90;99.90;;;;;;5135323;27;20068;-72
2022/09/28 05:02:34;;;;;;;15.77;11.25;;;6.90;99.90;;;;;;5135556;27;20055;-72
2022/09/28 05:04:59;;;;;;;16.33;11.73;;;6.90;99.90;;;;;;5154108;27;20042;-72
2022/09/28 05:07:25;;;;;;;17.33;11.35;;;6.80;99.90;;;;;;5153957;27;20119;-72
2022/09/28 05:09:51;;;;;;;17.48;11.88;;;6.80;99.90;;;;;;5154480;27;20467;-72
2022/09/28 05:12:17;;;;;;;16.80;10.98;;;7.00;99.90;;;;;;5153156;27;20118;-72
2022/09/28 05:14:43;;;;;;;16.02;11.65;;;6.80;99.90;;;;;;5135604;27;20058;-72
2022/09/28 05:17:09;;;;;;;17.08;11.70;;;6.80;99.90;;;;;;5153665;27;20035;-72
2022/09/28 05:19:35;;;;;;;16.13;11.70;;;6.80;99.90;;;;;;5174795;27;20046;-72
2022/09/28 05:22:03;;;;;;;20.27;12.50;;;7.00;99.90;;;;;;5147848;27;20042;-72
2022/09/28 05:24:32;;;;;;;16.63;11.57;;;6.80;99.90;;;;;;5150496;27;20396;-72
2022/09/28 05:26:57;;;;;;;17.23;11.52;;;6.80;99.90;;;;;;5151058;27;20041;-72
2022/09/28 05:29:23;;;;;;;14.23;10.65;;;6.80;99.90;;;;;;5158069;27;20122;-72
2022/09/28 05:31:48;;;;;;;16.35;11.73;;;6.80;99.90;;;;;;5138809;27;20076;-72
2022/09/28 05:34:14;;;;;;;17.23;11.55;;;7.60;99.90;;;;;;5157575;27;20171;-72
2022/09/28 05:36:41;;;;;;;15.52;11.27;;;6.80;99.90;;;;;;5157590;27;20042;-72
2022/09/28 05:39:08;;;;;;;17.05;11.43;;;6.80;99.90;;;;;;5157970;27;20050;-73
2022/09/28 05:41:34;;;;;;;16.38;11.55;;;6.80;99.90;;;;;;5138422;27;20047;-73
2022/09/28 05:44:00;;;;;;;17.73;10.73;;;7.90;99.90;;;;;;5138828;27;20042;-74
2022/09/28 05:46:25;;;;;;;16.00;11.85;;;6.80;99.90;;;;;;5156410;27;20096;-73
2022/09/28 05:48:51;;;;;;;16.80;10.80;;;6.80;99.90;;;;;;5156965;27;20043;-73
2022/09/28 05:51:17;;;;;;;14.13;10.52;;;6.90;99.90;;;;;;5157305;27;20125;-74
2022/09/28 05:53:43;;;;;;;14.35;10.43;;;6.90;99.90;;;;;;5157722;27;20190;-74
2022/09/28 05:56:09;;;;;;;17.98;10.63;;;7.60;99.90;;;;;;5150828;27;20103;-73
2022/09/28 05:58:34;;;;;;;14.18;10.25;;;6.90;99.90;;;;;;5100991;27;20122;-72
2022/09/28 06:01:00;;;;;;;17.92;10.45;;;6.90;99.90;;;;;;5135235;27;20117;-73
2022/09/28 06:03:27;;;;;;;15.57;11.00;;;6.90;99.90;;;;;;5142613;27;20109;-73
2022/09/28 06:05:53;;;;;;;15.05;11.07;;;6.90;99.90;;;;;;5156790;27;20046;-73
2022/09/28 06:08:19;;;;;;;17.42;11.23;;;6.90;99.90;;;;;;5156900;27;20506;-72
2022/09/28 06:10:44;;;;;;;15.48;10.43;;;7.00;99.90;;;;;;5155777;27;20039;-73
2022/09/28 06:13:10;;;;;;;14.90;11.32;;;7.00;99.90;;;;;;5154549;27;20046;-73
2022/09/28 06:15:37;;;;;;;14.43;10.48;;;7.40;99.90;;;;;;5136322;27;20039;-75
2022/09/28 06:18:09;;;;;;;13.63;10.65;;;7.20;99.90;;;;;;5136152;27;20051;-73
2022/09/28 06:20:37;;;;;;;14.90;10.77;;;8.00;99.90;;;;;;5100379;27;20050;-73
2022/09/28 06:23:03;;;;;;;13.45;10.48;;;7.30;99.90;;;;;;5123000;27;20034;-73
2022/09/28 06:25:29;;;;;;;13.75;9.23;;;7.40;99.90;;;;;;5156463;27;20125;-73
2022/09/28 06:28:02;;;;;;;12.15;9.05;;;8.00;99.90;;;;;;5155985;27;20151;-72
2022/09/28 06:30:31;;;;;;;12.43;10.15;;;7.60;99.90;;;;;;5154651;27;20455;-72
2022/09/28 06:32:58;;;;;;;11.93;9.48;;;7.60;99.90;;;;;;5145073;27;20045;-73
2022/09/28 06:35:26;;;;;;;12.02;9.65;;;7.60;99.90;;;;;;5135583;27;20059;-73
2022/09/28 06:37:52;;;;;;;12.43;10.07;;;7.90;99.90;;;;;;5123302;27;20366;-73
2022/09/28 06:40:20;;;;;;;11.35;9.30;;;7.90;99.90;;;;;;5156523;27;20047;-72
2022/09/28 06:42:59;;;;;;;12.82;8.95;;;9.20;99.90;;;;;;5155625;27;20034;-73
2022/09/28 06:45:26;;;;;;;9.55;7.93;;;8.90;99.90;;;;;;5155992;27;20078;-74
2022/09/28 06:48:00;;;;;;;11.32;8.32;;;9.40;99.90;;;;;;5137485;27;20127;-73
2022/09/28 06:50:28;;;;;;;9.70;7.10;;;9.40;99.90;;;;;;5137363;27;20539;-73
2022/09/28 06:52:55;;;;;;;9.32;7.70;;;9.50;99.90;;;;;;5156105;27;20109;-74
2022/09/28 06:55:21;;;;;;;9.18;7.07;;;9.70;99.90;;;;;;5155726;27;20213;-73
2022/09/28 06:57:56;;;;;;;9.35;7.22;;;10.00;99.90;;;;;;5154565;27;20213;-73
2022/09/28 07:00:22;;;;;;;8.97;7.43;;;9.50;99.90;;;;;;5156107;27;20046;-73
2022/09/28 07:02:47;;;;;;;8.70;7.32;;;9.40;99.90;;;;;;5155581;27;20042;-73
2022/09/28 07:05:13;;;;;;;8.32;6.88;;;9.70;99.90;;;;;;5172246;27;20491;-72
2022/09/28 07:07:41;;;;;;;9.77;7.88;;;9.20;99.90;;;;;;5153298;27;20042;-73
2022/09/28 07:10:09;;;;;;;10.70;7.95;;;9.10;99.90;;;;;;5119593;27;20042;-73
2022/09/28 07:12:36;;;;;;;9.90;7.65;;;9.10;99.90;;;;;;5136563;27;20042;-73
2022/09/28 07:15:02;;;;;;;9.50;8.05;;;9.10;99.90;;;;;;5155624;27;20050;-73
2022/09/28 07:17:28;;;;;;;10.93;8.20;;;9.20;99.90;;;;;;5155369;27;20119;-72
2022/09/28 07:19:56;;;;;;;10.32;8.10;;;9.20;99.90;;;;;;5154743;27;20062;-72
2022/09/28 07:22:22;;;;;;;9.93;8.15;;;9.60;99.90;;;;;;5141350;27;20138;-72
2022/09/28 07:24:47;;;;;;;12.13;8.70;;;9.20;99.90;;;;;;5150641;27;20129;-73
2022/09/28 07:27:13;;;;;;;11.95;8.98;;;9.20;99.90;;;;;;5119090;27;20432;-73
2022/09/28 07:29:39;;;;;;;12.45;8.77;;;9.20;99.90;;;;;;5154997;27;20141;-74
2022/09/28 07:32:05;;;;;;;13.18;9.05;;;9.20;99.90;;;;;;5136913;27;20074;-73
2022/09/28 07:34:31;;;;;;;12.32;9.05;;;9.30;99.90;;;;;;5136682;27;20166;-73
2022/09/28 07:36:58;;;;;;;11.85;8.25;;;10.10;99.90;;;;;;5153624;27;20091;-74
2022/09/28 07:39:24;;;;;;;12.32;9.00;;;9.40;99.90;;;;;;5135981;27;20051;-74
2022/09/28 07:41:49;;;;;;;11.00;8.43;;;10.20;99.90;;;;;;5140580;27;20511;-74
2022/09/28 07:44:16;;;;;;;10.68;8.45;;;9.60;99.90;;;;;;5154848;27;20121;-74
2022/09/28 07:46:42;;;;;;;11.73;8.02;;;9.70;99.90;;;;;;5154971;27;20035;-72
2022/09/28 07:49:07;;;;;;;10.02;7.95;;;10.40;99.90;;;;;;5146029;27;20460;-72
2022/09/28 07:51:33;;;;;;;11.27;8.45;;;10.00;99.90;;;;;;5129186;27;20092;-73
2022/09/28 07:53:59;;;;;;;8.85;7.43;;;10.20;99.90;;;;;;5133920;27;20487;-73
2022/09/28 07:56:25;;;;;;;10.13;8.43;;;10.40;99.90;;;;;;5139389;27;20376;-73
2022/09/28 07:58:50;;;;;;;11.38;7.97;;;10.60;99.90;;;;;;5154572;27;20118;-73
2022/09/28 08:01:17;;;;;;;9.93;8.10;;;10.80;99.90;;;;;;5144722;27;20047;-73
2022/09/28 08:03:45;;;;;;;10.27;7.72;;;11.00;99.90;;;;;;5156103;27;20043;-73
2022/09/28 08:06:12;;;;;;;9.27;7.38;;;11.30;99.90;;;;;;5175493;27;20503;-73
2022/09/28 08:08:42;;;;;;;9.02;7.50;;;11.70;99.90;;;;;;5157072;27;20046;-74
2022/09/28 08:11:09;;;;;;;8.68;7.22;;;12.50;99.90;;;;;;5157033;27;20123;-73
2022/09/28 08:13:36;;;;;;;9.77;7.22;;;12.30;99.90;;;;;;5115690;27;20043;-74
2022/09/28 08:16:03;;;;;;;9.00;7.47;;;12.10;99.90;;;;;;5151148;27;20340;-73
2022/09/28 08:18:29;;;;;;;9.98;7.90;;;12.30;99.90;;;;;;5154729;27;20035;-74
2022/09/28 08:23:39;;;;;;;8.13;6.63;;;12.80;99.90;;;;;;5154010;27;20049;-72
2022/09/28 08:26:05;;;;;;;7.90;6.50;;;12.90;99.90;;;;;;5153531;27;20035;-73
2022/09/28 08:28:31;;;;;;;9.35;6.68;;;13.20;99.90;;;;;;5135567;27;20390;-74
2022/09/28 08:31:00;;;;;;;10.35;7.05;;;13.30;99.90;;;;;;5154402;27;20035;-73
2022/09/28 08:33:26;;;;;;;10.05;7.43;;;13.90;99.90;;;;;;5154485;27;20130;-74
2022/09/28 08:35:59;;;;;;;9.85;7.53;;;13.60;99.90;;;;;;5153883;27;20076;-73
2022/09/28 08:38:26;;;;;;;11.95;7.25;;;13.60;99.90;;;;;;5135736;27;20047;-73
2022/09/28 08:41:04;;;;;;;10.75;7.07;;;13.70;99.90;;;;;;5134522;27;20039;-73
2022/09/28 08:43:51;;;;;;;12.43;7.88;;;13.70;99.90;;;;;;5154165;27;20391;-73
2022/09/28 08:46:23;;;;;;;8.73;7.13;;;13.70;99.90;;;;;;5145697;27;20035;-72
2022/09/28 08:49:03;;;;;;;12.00;7.93;;;13.80;99.90;;;;;;5132612;27;20053;-72
2022/09/28 08:51:48;;;;;;;10.27;7.82;;;14.00;99.90;;;;;;5132492;27;20043;-73
2022/09/28 08:54:20;;;;;;;11.23;7.53;;;14.20;99.90;;;;;;5133240;27;20050;-73
2022/09/28 08:57:05;;;;;;;14.70;7.82;;;14.40;99.90;;;;;;5133114;27;20042;-73
2022/09/28 08:59:43;;;;;;;10.18;7.30;;;14.70;99.90;;;;;;5097739;28;20062;-73
2022/09/28 09:02:34;;;;;;;11.85;7.45;;;15.00;99.90;;;;;;5118132;27;20034;-73
2022/09/28 09:05:04;;;;;;;12.68;6.93;;;15.30;99.90;;;;;;5133476;27;20047;-73
2022/09/28 09:07:56;;;;;;;11.05;6.97;;;15.90;99.90;;;;;;5147326;27;20035;-74
2022/09/28 09:10:48;;;;;;;8.27;6.30;;;16.30;99.90;;;;;;5135013;27;20458;-74
2022/09/28 09:13:36;;;;;;;9.73;6.35;;;16.90;99.90;;;;;;5116660;27;20043;-74
2022/09/28 09:16:21;;;;;;;10.57;5.32;;;17.40;99.90;;;;;;5149643;27;20047;-72
2022/09/28 09:19:34;;;;;;;7.60;4.38;;;19.70;99.90;;;;;;5152728;27;20039;-72
2022/09/28 09:22:26;;;;;;;5.10;3.30;;;22.80;99.90;;;;;;5032573;28;20049;-72
2022/09/28 09:25:14;;;;;;;5.65;3.53;;;25.90;99.90;;;;;;5113515;28;20063;-72
2022/09/28 09:27:58;;;;;;;5.82;3.50;;;27.90;96.90;;;;;;5132355;28;20492;-72
2022/09/28 09:30:25;;;;;;;5.30;3.65;;;29.70;93.60;;;;;;5133092;28;20373;-72
2022/09/28 09:33:25;;;;;;;5.45;3.88;;;31.30;91.80;;;;;;5154369;27;20113;-73
2022/09/28 09:36:06;;;;;;;4.90;3.00;;;32.90;90.90;;;;;;5154717;27;20043;-73
2022/09/28 09:38:59;;;;;;;5.18;3.15;;;34.40;85.90;;;;;;5152163;27;20055;-73
2022/09/28 09:41:45;;;;;;;4.43;2.88;;;35.00;80.70;;;;;;5122798;27;20049;-73
2022/09/28 09:44:20;;;;;;;3.70;2.00;;;35.60;77.70;;;;;;5158716;27;20123;-73
2022/09/28 09:46:53;;;;;;;4.78;2.65;;;35.90;72.20;;;;;;5143347;27;20084;-73
2022/09/28 09:49:27;;;;;;;5.47;2.50;;;36.50;72.10;;;;;;5144941;27;20367;-73
2022/09/28 09:52:05;;;;;;;5.05;2.65;;;36.40;70.30;;;;;;5133966;27;20050;-73
2022/09/28 09:54:37;;;;;;;5.47;2.50;;;35.20;70.90;;;;;;5152021;27;20058;-73
2022/09/28 09:57:17;;;;;;;5.07;2.30;;;33.20;69.30;;;;;;5134229;27;20042;-72
2022/09/28 09:59:44;;;;;;;6.63;2.45;;;31.40;73.10;;;;;;5153736;27;20067;-72
2022/09/28 10:02:28;;;;;;;4.47;1.90;;;31.10;73.80;;;;;;5153018;27;20099;-73
2022/09/28 10:05:05;;;;;;;4.95;1.73;;;32.10;74.30;;;;;;5137308;27;20394;-73
2022/09/28 10:08:01;;;;;;;3.50;1.52;;;33.50;70.60;;;;;;5156916;27;20045;-73
2022/09/28 10:10:46;;;;;;;3.72;1.70;;;35.10;68.10;;;;;;5153751;27;20039;-73
2022/09/28 10:13:12;;;;;;;2.77;1.50;;;36.30;66.30;;;;;;5136184;27;20043;-73
2022/09/28 10:15:40;;;;;;;3.40;1.30;;;37.20;65.80;;;;;;5135942;27;20280;-73
2022/09/28 10:18:11;;;;;;;3.15;1.50;;;37.10;64.00;;;;;;5134941;27;20520;-73
2022/09/28 10:20:39;;;;;;;5.85;1.50;;;35.40;63.30;;;;;;5136131;27;20039;-73
2022/09/28 10:23:11;;;;;;;2.67;1.30;;;33.70;64.80;;;;;;5133860;27;20031;-74
2022/09/28 10:25:37;;;;;;;4.22;1.50;;;34.00;66.00;;;;;;5134933;27;20039;-73
2022/09/28 10:28:05;;;;;;;3.45;1.30;;;34.40;64.10;;;;;;5135816;27;20039;-73
2022/09/28 10:30:43;;;;;;;2.42;1.10;;;33.00;63.70;;;;;;5117256;27;20036;-73
2022/09/28 10:33:30;;;;;;;4.25;1.25;;;31.20;64.20;;;;;;5134697;27;20047;-72
2022/09/28 10:36:02;;;;;;;3.83;1.27;;;28.90;66.80;;;;;;5135395;27;20134;-72
2022/09/28 10:38:32;;;;;;;2.72;1.13;;;27.90;67.00;;;;;;5135736;27;20054;-74
2022/09/28 10:41:00;;;;;;;4.50;1.35;;;28.30;68.00;;;;;;5134578;27;20183;-72
2022/09/28 10:43:28;;;;;;;4.55;1.15;;;28.80;67.30;;;;;;5135679;27;20103;-72
2022/09/28 10:46:09;;;;;;;1.48;1.10;;;27.90;67.30;;;;;;5116854;27;20035;-72
2022/09/28 10:48:47;;;;;;;3.40;1.30;;;26.40;68.50;;;;;;5135266;27;20391;-72
2022/09/28 10:51:12;;;;;;;3.42;1.13;;;25.10;70.70;;;;;;5134818;27;20447;-72
2022/09/28 10:53:38;;;;;;;3.50;1.15;;;25.20;72.40;;;;;;5135287;27;20054;-72
2022/09/28 10:56:04;;;;;;;2.35;1.17;;;26.90;72.00;;;;;;5134970;27;20044;-72
2022/09/28 10:58:40;;;;;;;2.53;1.10;;;28.00;69.80;;;;;;5135438;27;20035;-72
2022/09/28 11:01:12;;;;;;;2.25;1.05;;;27.30;69.60;;;;;;5134997;27;20160;-72
2022/09/28 11:03:57;;;;;;;3.40;0.98;;;26.50;70.10;;;;;;5134084;27;20108;-72
2022/09/28 11:06:50;;;;;;;1.55;1.08;;;26.00;70.00;;;;;;5149746;27;20051;-73
2022/09/28 11:09:34;;;;;;;3.90;1.25;;;24.90;71.20;;;;;;5131692;27;20203;-72
2022/09/28 11:12:03;;;;;;;2.00;1.13;;;24.10;72.40;;;;;;5134412;27;20468;-72
2022/09/28 11:14:34;;;;;;;1.65;0.80;;;23.30;73.20;;;;;;5134895;27;20047;-72
2022/09/28 11:17:28;;;;;;;2.28;1.00;;;22.80;74.10;;;;;;5163777;27;20047;-72
2022/09/28 11:20:25;;;;;;;3.25;1.10;;;22.10;75.20;;;;;;5136373;27;20502;-73
2022/09/28 11:22:52;;;;;;;2.28;0.95;;;21.70;76.80;;;;;;5136019;27;20049;-72
2022/09/28 11:25:23;;;;;;;1.95;1.10;;;21.30;77.70;;;;;;5155879;27;20089;-73
2022/09/28 11:27:51;;;;;;;2.63;0.95;;;20.90;78.90;;;;;;5155902;27;20070;-72
2022/09/28 11:30:44;;;;;;;3.40;1.10;;;20.60;79.80;;;;;;5137135;27;20047;-72
2022/09/28 11:33:16;;;;;;;1.58;1.00;;;20.30;80.40;;;;;;5155520;27;20386;-70
2022/09/28 11:36:03;;;;;;;1.58;0.90;;;20.10;81.00;;;;;;5155267;27;20141;-73
2022/09/28 11:38:57;;;;;;;2.00;1.15;;;20.00;81.70;;;;;;5155391;27;20402;-73
2022/09/28 11:41:31;;;;;;;4.30;1.20;;;19.90;82.50;;;;;;5155203;27;20157;-72
2022/09/28 11:44:18;;;;;;;3.55;1.02;;;19.60;83.10;;;;;;5136628;27;20167;-72
2022/09/28 11:46:59;;;;;;;2.28;1.30;;;19.30;84.10;;;;;;5154917;27;20050;-72
2022/09/28 11:49:56;;;;;;;2.08;1.10;;;18.90;85.20;;;;;;5155149;27;20115;-72
2022/09/28 11:52:26;;;;;;;6.60;3.38;;;18.50;86.30;;;;;;5155100;27;20047;-72
2022/09/28 11:55:02;;;;;;;2.47;1.10;;;18.20;87.00;;;;;;5153530;27;20047;-72
2022/09/28 11:57:34;;;;;;;2.92;1.20;;;18.00;87.70;;;;;;5136499;27;20039;-72
2022/09/28 12:00:15;;;;;;;1.58;0.98;;;17.70;88.80;;;;;;5115403;27;20345;-72
2022/09/28 12:02:59;;;;;;;2.92;1.38;;;17.50;91.00;;;;;;5149232;27;20047;-72
2022/09/28 12:05:31;;;;;;;1.60;0.98;;;17.30;92.20;;;;;;5133580;27;20039;-72
2022/09/28 12:08:14;;;;;;;1.65;1.00;;;17.10;93.50;;;;;;5134090;27;20049;-72
2022/09/28 12:10:56;;;;;;;1.10;1.00;;;16.90;94.30;;;;;;5115480;27;20363;-72
2022/09/28 12:13:44;;;;;;;3.08;1.20;;;16.70;95.10;;;;;;5133436;27;20046;-72
2022/09/28 12:16:19;;;;;;;1.77;1.05;;;16.70;95.50;;;;;;5132362;27;20541;-72
2022/09/28 12:18:54;;;;;;;1.97;1.20;;;16.80;96.00;;;;;;5133844;27;20399;-72
2022/09/28 12:21:23;;;;;;;;;;;17.20;96.20;;;;;;5133839;27;20039;-72
2022/09/28 12:24:03;;;;;;;3.05;1.00;;;17.90;97.00;;;;;;5133760;27;19923;-72
2022/09/28 12:26:32;;;;;;;2.42;1.10;;;19.60;95.40;;;;;;5133546;27;20189;-72
2022/09/28 12:29:01;;;;;;;3.22;1.10;;;21.50;92.60;;;;;;5115235;27;20129;-72
2022/09/28 12:31:36;;;;;;;1.55;0.90;;;22.20;91.30;;;;;;5115131;27;20045;-72
2022/09/28 12:34:02;;;;;;;;;;;22.10;90.30;;;;;;5133792;27;20382;-73
2022/09/28 12:37:01;;;;;;;1.25;0.90;;;21.60;90.30;;;;;;5149258;27;19927;-72
2022/09/28 12:39:57;;;;;;;2.33;1.10;;;20.90;90.70;;;;;;5133088;27;20529;-72
2022/09/28 12:42:45;;;;;;;1.48;0.90;;;20.10;91.10;;;;;;5103758;27;20462;-72
2022/09/28 12:45:32;;;;;;;2.53;0.82;;;19.60;91.60;;;;;;5133742;27;20052;-72
2022/09/28 12:48:19;;;;;;;3.35;1.08;;;19.10;92.50;;;;;;5133116;27;20080;-72
2022/09/28 12:51:15;;;;;;;4.85;1.40;;;18.60;93.30;;;;;;5133395;27;20430;-72
2022/09/28 12:54:00;;;;;;;1.95;1.17;;;18.20;94.60;;;;;;5115109;27;20552;-72
2022/09/28 12:56:52;;;;;;;1.35;0.95;;;17.90;95.90;;;;;;5148740;27;20117;-72
2022/09/28 12:59:37;;;;;;;1.48;1.08;;;17.50;97.00;;;;;;5131849;27;20403;-72
2022/09/28 13:02:30;;;;;;;1.90;0.93;;;17.30;97.80;;;;;;5114194;28;20061;-72
2022/09/28 13:05:14;;;;;;;1.10;0.68;;;16.90;98.40;;;;;;5131835;27;20073;-72
2022/09/28 13:07:49;;;;;;;1.83;0.60;;;16.70;98.90;;;;;;5131748;27;20475;-72
2022/09/28 13:10:39;;;;;;;1.50;1.00;;;16.50;98.90;;;;;;5114339;27;20099;-72
2022/09/28 13:13:25;;;;;;;2.80;1.00;;;16.20;99.20;;;;;;5133124;28;20373;-72
2022/09/28 13:16:00;;;;;;;1.48;1.00;;;16.10;99.70;;;;;;5132661;28;20426;-71
2022/09/28 13:18:49;;;;;;;1.75;1.00;;;16.20;99.90;;;;;;5132937;28;20042;-71